Atterbury, Illinois
Current Conditions -  °F | °C
As of 11:52 AM on Thursday 29 Jan 2015 (Local Time) from KSPI Reporting Station
Overcast Overcast  
Wind Chill: 28°   Ceiling: 2200
Heat Index: 38°   Visibility: 10mi
Dew Point: 31°   Wind: 18mph
Humidity: 76%   Direction: 310°NW
Pressure: 30.08"   Gusts: 33mph
Location:  40.0452°N, 89.8548°W
Report Text: KSPI 291752Z 31016G29KT 10SM OVC022 03/M01 A3008 RMK AO2 PK WND 30029/1748 SLP190 T00331006 10044 20033 51029
Loading
Personal Weather Stations






























Interactive Weather Map New forecast layout! Learn more

10-Day Weather Forecast

Advertisements
Track Severe Weather on mobile